Portada
METAR-TAF:

METAR-TAF

Aeroports :

Aeroport de Madrid-Barajas

Madrid, Espanya

latitud: 40-27N, longitud: 003-33W, altitud: 609 m

Observació

L'informe es va fer fa 12 minuts, a les 10:00 UTC
Vent 8 kt del Nord, variant entre Nord-Oest i Nord/Nord-Est
Temperatura 12°C
Humitat 44%
Pressió 1025 hPa
Visibilitat 10 km o més
Escasses núvols a una alçada de 5000 ft

METAR: LEMD 191000Z 35008KT 310V030 9999 FEW050 12/M00 Q1025 NOSIG

Hora: 11:12 (10:12 UTC)

Pronòstic

L'informe es va fer fa 5 hores i 12 minuts, a les 05:00 UTC
Pronòstic vàlid del 19 a les 06 UTC al 20 a les 12 UTC
Vent 7 kt del Nord-Est
Visibilitat 10 km o més
sense núvols per sota de 1500 mi sense presència de cumulonimbus.
Temporalment
l' 19 a les 12 UTC al 19 a les 19 UTC
Vent 18 kt del Nord/Nord-Est amb ràfegues de 28 kt

TAF: LEMD 190500Z 1906/2012 04007KT CAVOK TX14/1915Z TN03/2006Z TEMPO 1912/1919 03018G28KT

Observacions i pronòstics meteorològics de més de 4000 aeroports (METAR i TAF).

Les estacions disponibles són els punts grocs i vermells al mapa.

Posi el ratolí al punt desitjat per veure el nom de l'estació.

Feu clic per veure les observacions i els pronòstics meteorològics.

Per canviar el mapa: feu clic els botons verds amb una creu de color negre per apropar; al botó verd amb un guió per allunyar la imatge; o en les fletxes verdes per a mapes adjacents.


METAR-TAF: